Main page
METAR-TAF:

METAR-TAF

Airports :

Harry Mwanga Nkumbula International Airport

Livingstone, Zambia

latitude: 17-49-18S, longitude: 025-49-22E, elevation: 991 m

METAR: missing

Time: 09:32 (07:32 UTC)

Forecast

The report was made 3 hours and 32 minutes ago, at 04:00 UTC
Forecast valid from 02 at 06 UTC to 03 at 12 UTC
Wind 10 kt from the East with gusts up to 15 kt
Visibility 10 km or more
no clouds below 1500 m and no cumulonimbus
Becoming
from 02 at 08 UTC to 02 at 10 UTC
Visibility 10 km or more
Scattered clouds at a height of 4500 ft, Towering cumulus.
Becoming
from 02 at 12 UTC to 02 at 16 UTC
Wind 10 kt from the East
From 02 at 1500 UTC
Visibility 10 km or more
no clouds below 1500 m and no cumulonimbus

TAF: FLHN 020400Z 0206/0312 09010G15KT CAVOK BECMG 0208/0210 9999 SCT045TCU BECMG 0212/0216 09010KT FM021500 CAVOK

Weather observations and forecasts of more than 4000 airports (METAR and TAF reports).

The available stations are represented by yellow and red dots on the map.

Hover mouse over dot to see the name of the station.

Then click to see weather observations and forecasts.

To change the map : click on the green buttons with a black cross to zoom in, on the green button with a dash to zoom out, or on the green arrows for adjacent maps.


METAR-TAF: